sensor_id;sensor_type;location;lat;lon;timestamp;P1;durP1;ratioP1;P2;durP2;ratioP2
29218;SDS011;16421;50.202;7.852;2024-02-26T00:02:08;1.45;;;0.70;;
29218;SDS011;16421;50.202;7.852;2024-02-26T00:07:11;0.80;;;0.60;;
29218;SDS011;16421;50.202;7.852;2024-02-26T00:12:16;0.88;;;0.50;;
29218;SDS011;16421;50.202;7.852;2024-02-26T00:17:19;0.68;;;0.50;;
29218;SDS011;16421;50.202;7.852;2024-02-26T00:22:22;0.65;;;0.50;;
29218;SDS011;16421;50.202;7.852;2024-02-26T00:27:27;0.90;;;0.60;;
29218;SDS011;16421;50.202;7.852;2024-02-26T00:32:30;1.90;;;0.52;;
29218;SDS011;16421;50.202;7.852;2024-02-26T00:37:33;0.57;;;0.47;;
29218;SDS011;16421;50.202;7.852;2024-02-26T00:42:38;0.40;;;0.40;;
29218;SDS011;16421;50.202;7.852;2024-02-26T00:47:46;0.63;;;0.40;;
29218;SDS011;16421;50.202;7.852;2024-02-26T00:52:50;0.40;;;0.40;;
29218;SDS011;16421;50.202;7.852;2024-02-26T00:57:54;0.63;;;0.52;;
29218;SDS011;16421;50.202;7.852;2024-02-26T01:02:58;0.57;;;0.50;;
29218;SDS011;16421;50.202;7.852;2024-02-26T01:08:01;0.60;;;0.60;;
29218;SDS011;16421;50.202;7.852;2024-02-26T01:13:06;0.60;;;0.60;;
29218;SDS011;16421;50.202;7.852;2024-02-26T01:18:10;0.50;;;0.50;;
29218;SDS011;16421;50.202;7.852;2024-02-26T01:23:14;0.70;;;0.70;;
29218;SDS011;16421;50.202;7.852;2024-02-26T01:28:19;0.40;;;0.40;;
29218;SDS011;16421;50.202;7.852;2024-02-26T01:33:22;0.47;;;0.47;;
29218;SDS011;16421;50.202;7.852;2024-02-26T01:38:25;1.15;;;0.40;;
29218;SDS011;16421;50.202;7.852;2024-02-26T01:43:30;0.50;;;0.50;;
29218;SDS011;16421;50.202;7.852;2024-02-26T01:48:33;1.00;;;0.40;;
29218;SDS011;16421;50.202;7.852;2024-02-26T01:53:36;0.40;;;0.40;;
29218;SDS011;16421;50.202;7.852;2024-02-26T01:58:41;0.65;;;0.57;;
29218;SDS011;16421;50.202;7.852;2024-02-26T02:03:45;0.30;;;0.30;;
29218;SDS011;16421;50.202;7.852;2024-02-26T02:08:49;0.20;;;0.20;;
29218;SDS011;16421;50.202;7.852;2024-02-26T02:13:54;0.40;;;0.40;;
29218;SDS011;16421;50.202;7.852;2024-02-26T02:18:57;0.40;;;0.40;;
29218;SDS011;16421;50.202;7.852;2024-02-26T02:24:02;1.13;;;0.57;;
29218;SDS011;16421;50.202;7.852;2024-02-26T02:29:06;1.58;;;0.82;;
29218;SDS011;16421;50.202;7.852;2024-02-26T02:34:10;0.80;;;0.70;;
29218;SDS011;16421;50.202;7.852;2024-02-26T02:39:16;1.13;;;0.65;;
29218;SDS011;16421;50.202;7.852;2024-02-26T02:44:20;1.40;;;0.70;;
29218;SDS011;16421;50.202;7.852;2024-02-26T02:49:23;1.17;;;0.80;;
29218;SDS011;16421;50.202;7.852;2024-02-26T02:54:28;2.25;;;0.80;;
29218;SDS011;16421;50.202;7.852;2024-02-26T02:59:31;1.60;;;1.00;;
29218;SDS011;16421;50.202;7.852;2024-02-26T03:04:34;1.27;;;1.00;;
29218;SDS011;16421;50.202;7.852;2024-02-26T03:09:39;3.33;;;1.10;;
29218;SDS011;16421;50.202;7.852;2024-02-26T03:14:42;1.42;;;0.90;;
29218;SDS011;16421;50.202;7.852;2024-02-26T03:19:45;0.80;;;0.80;;
29218;SDS011;16421;50.202;7.852;2024-02-26T03:24:55;0.98;;;0.90;;
29218;SDS011;16421;50.202;7.852;2024-02-26T03:29:59;0.90;;;0.75;;
29218;SDS011;16421;50.202;7.852;2024-02-26T03:35:03;0.85;;;0.82;;
29218;SDS011;16421;50.202;7.852;2024-02-26T03:40:10;0.77;;;0.70;;
29218;SDS011;16421;50.202;7.852;2024-02-26T03:45:15;1.05;;;0.80;;
29218;SDS011;16421;50.202;7.852;2024-02-26T03:50:19;0.95;;;0.60;;
29218;SDS011;16421;50.202;7.852;2024-02-26T03:55:23;1.45;;;1.00;;
29218;SDS011;16421;50.202;7.852;2024-02-26T04:00:27;1.75;;;0.82;;
29218;SDS011;16421;50.202;7.852;2024-02-26T04:05:31;0.63;;;0.63;;
29218;SDS011;16421;50.202;7.852;2024-02-26T04:10:36;0.88;;;0.60;;
29218;SDS011;16421;50.202;7.852;2024-02-26T04:15:40;2.25;;;0.80;;
29218;SDS011;16421;50.202;7.852;2024-02-26T04:20:43;0.80;;;0.60;;
29218;SDS011;16421;50.202;7.852;2024-02-26T04:25:48;1.25;;;0.73;;
29218;SDS011;16421;50.202;7.852;2024-02-26T04:30:51;0.60;;;0.60;;
29218;SDS011;16421;50.202;7.852;2024-02-26T04:35:55;2.15;;;0.88;;
29218;SDS011;16421;50.202;7.852;2024-02-26T04:40:59;0.40;;;0.40;;
29218;SDS011;16421;50.202;7.852;2024-02-26T04:46:03;0.70;;;0.70;;
29218;SDS011;16421;50.202;7.852;2024-02-26T04:51:06;1.23;;;0.75;;
29218;SDS011;16421;50.202;7.852;2024-02-26T04:56:11;1.48;;;0.80;;
29218;SDS011;16421;50.202;7.852;2024-02-26T05:01:15;0.82;;;0.70;;
29218;SDS011;16421;50.202;7.852;2024-02-26T05:06:18;1.10;;;0.90;;
29218;SDS011;16421;50.202;7.852;2024-02-26T05:11:23;0.73;;;0.68;;
29218;SDS011;16421;50.202;7.852;2024-02-26T05:28:34;0.60;;;0.60;;
29218;SDS011;16421;50.202;7.852;2024-02-26T05:33:56;0.75;;;0.70;;
29218;SDS011;16421;50.202;7.852;2024-02-26T05:39:19;0.60;;;0.50;;
29218;SDS011;16421;50.202;7.852;2024-02-26T05:44:25;0.60;;;0.55;;
29218;SDS011;16421;50.202;7.852;2024-02-26T05:54:32;0.90;;;0.80;;
29218;SDS011;16421;50.202;7.852;2024-02-26T05:59:37;0.70;;;0.70;;
29218;SDS011;16421;50.202;7.852;2024-02-26T06:04:40;0.60;;;0.60;;
29218;SDS011;16421;50.202;7.852;2024-02-26T06:09:43;2.72;;;0.85;;
29218;SDS011;16421;50.202;7.852;2024-02-26T06:14:48;1.15;;;0.70;;
29218;SDS011;16421;50.202;7.852;2024-02-26T06:19:51;0.75;;;0.52;;
29218;SDS011;16421;50.202;7.852;2024-02-26T06:24:54;0.80;;;0.80;;
29218;SDS011;16421;50.202;7.852;2024-02-26T06:29:59;0.73;;;0.70;;
29218;SDS011;16421;50.202;7.852;2024-02-26T06:35:03;0.85;;;0.73;;
29218;SDS011;16421;50.202;7.852;2024-02-26T06:40:08;0.60;;;0.60;;
29218;SDS011;16421;50.202;7.852;2024-02-26T06:45:13;1.58;;;0.90;;
29218;SDS011;16421;50.202;7.852;2024-02-26T06:50:17;1.08;;;0.80;;
29218;SDS011;16421;50.202;7.852;2024-02-26T06:55:20;0.82;;;0.82;;
29218;SDS011;16421;50.202;7.852;2024-02-26T07:00:24;1.00;;;0.80;;
29218;SDS011;16421;50.202;7.852;2024-02-26T07:05:28;1.65;;;0.98;;
29218;SDS011;16421;50.202;7.852;2024-02-26T07:10:31;0.70;;;0.70;;
29218;SDS011;16421;50.202;7.852;2024-02-26T07:15:36;0.82;;;0.80;;
29218;SDS011;16421;50.202;7.852;2024-02-26T07:20:39;1.50;;;1.00;;
29218;SDS011;16421;50.202;7.852;2024-02-26T07:25:43;1.50;;;0.90;;
29218;SDS011;16421;50.202;7.852;2024-02-26T07:30:50;1.70;;;1.07;;
29218;SDS011;16421;50.202;7.852;2024-02-26T07:35:53;1.95;;;0.82;;
29218;SDS011;16421;50.202;7.852;2024-02-26T07:40:56;0.60;;;0.60;;
29218;SDS011;16421;50.202;7.852;2024-02-26T07:46:01;0.82;;;0.60;;
29218;SDS011;16421;50.202;7.852;2024-02-26T07:51:04;0.80;;;0.80;;
29218;SDS011;16421;50.202;7.852;2024-02-26T07:56:08;0.68;;;0.68;;
29218;SDS011;16421;50.202;7.852;2024-02-26T08:01:14;0.80;;;0.80;;
29218;SDS011;16421;50.202;7.852;2024-02-26T08:06:17;0.80;;;0.80;;
29218;SDS011;16421;50.202;7.852;2024-02-26T08:11:20;1.38;;;0.98;;
29218;SDS011;16421;50.202;7.852;2024-02-26T08:16:25;0.60;;;0.60;;
29218;SDS011;16421;50.202;7.852;2024-02-26T08:21:28;1.58;;;0.80;;
29218;SDS011;16421;50.202;7.852;2024-02-26T08:26:31;0.50;;;0.50;;
29218;SDS011;16421;50.202;7.852;2024-02-26T08:31:36;1.35;;;0.90;;
29218;SDS011;16421;50.202;7.852;2024-02-26T08:36:39;0.68;;;0.60;;
29218;SDS011;16421;50.202;7.852;2024-02-26T08:41:44;0.70;;;0.65;;
29218;SDS011;16421;50.202;7.852;2024-02-26T08:46:49;0.98;;;0.93;;
29218;SDS011;16421;50.202;7.852;2024-02-26T08:51:52;0.80;;;0.80;;
29218;SDS011;16421;50.202;7.852;2024-02-26T08:56:55;1.15;;;0.93;;
29218;SDS011;16421;50.202;7.852;2024-02-26T09:02:00;0.95;;;0.90;;
29218;SDS011;16421;50.202;7.852;2024-02-26T09:07:03;1.00;;;0.90;;
29218;SDS011;16421;50.202;7.852;2024-02-26T09:12:07;1.00;;;0.90;;
29218;SDS011;16421;50.202;7.852;2024-02-26T09:17:12;1.45;;;1.13;;
29218;SDS011;16421;50.202;7.852;2024-02-26T09:22:15;1.02;;;0.93;;
29218;SDS011;16421;50.202;7.852;2024-02-26T09:27:19;0.90;;;0.88;;
29218;SDS011;16421;50.202;7.852;2024-02-26T09:32:25;0.77;;;0.73;;
29218;SDS011;16421;50.202;7.852;2024-02-26T09:37:28;0.70;;;0.70;;
29218;SDS011;16421;50.202;7.852;2024-02-26T09:42:32;0.93;;;0.80;;
29218;SDS011;16421;50.202;7.852;2024-02-26T09:47:38;0.80;;;0.77;;
29218;SDS011;16421;50.202;7.852;2024-02-26T09:52:42;1.15;;;0.50;;
29218;SDS011;16421;50.202;7.852;2024-02-26T09:57:47;0.80;;;0.77;;
29218;SDS011;16421;50.202;7.852;2024-02-26T10:02:58;0.70;;;0.70;;
29218;SDS011;16421;50.202;7.852;2024-02-26T10:13:45;0.82;;;0.82;;
29218;SDS011;16421;50.202;7.852;2024-02-26T10:19:08;1.20;;;0.90;;
29218;SDS011;16421;50.202;7.852;2024-02-26T10:24:31;0.70;;;0.70;;
29218;SDS011;16421;50.202;7.852;2024-02-26T10:29:35;1.55;;;0.93;;
29218;SDS011;16421;50.202;7.852;2024-02-26T10:34:42;1.47;;;1.10;;
29218;SDS011;16421;50.202;7.852;2024-02-26T10:39:47;1.23;;;1.00;;
29218;SDS011;16421;50.202;7.852;2024-02-26T10:44:50;1.40;;;1.00;;
29218;SDS011;16421;50.202;7.852;2024-02-26T10:49:55;0.85;;;0.85;;
29218;SDS011;16421;50.202;7.852;2024-02-26T10:55:00;1.30;;;1.02;;
29218;SDS011;16421;50.202;7.852;2024-02-26T11:00:05;1.58;;;1.13;;
29218;SDS011;16421;50.202;7.852;2024-02-26T11:05:15;1.10;;;0.90;;
29218;SDS011;16421;50.202;7.852;2024-02-26T11:10:20;2.50;;;1.20;;
29218;SDS011;16421;50.202;7.852;2024-02-26T11:15:26;0.70;;;0.70;;
29218;SDS011;16421;50.202;7.852;2024-02-26T11:20:32;1.17;;;0.90;;
29218;SDS011;16421;50.202;7.852;2024-02-26T11:25:36;0.80;;;0.80;;
29218;SDS011;16421;50.202;7.852;2024-02-26T11:30:48;1.20;;;1.10;;
29218;SDS011;16421;50.202;7.852;2024-02-26T11:35:53;1.30;;;1.10;;
29218;SDS011;16421;50.202;7.852;2024-02-26T11:40:56;1.20;;;1.10;;
29218;SDS011;16421;50.202;7.852;2024-02-26T11:46:01;1.70;;;1.23;;
29218;SDS011;16421;50.202;7.852;2024-02-26T11:51:06;1.83;;;1.42;;
29218;SDS011;16421;50.202;7.852;2024-02-26T11:56:13;2.30;;;1.77;;
29218;SDS011;16421;50.202;7.852;2024-02-26T12:01:38;2.00;;;1.80;;
29218;SDS011;16421;50.202;7.852;2024-02-26T12:06:49;1.42;;;1.25;;
29218;SDS011;16421;50.202;7.852;2024-02-26T12:11:53;2.38;;;1.58;;
29218;SDS011;16421;50.202;7.852;2024-02-26T12:16:58;1.75;;;1.38;;
29218;SDS011;16421;50.202;7.852;2024-02-26T12:22:03;2.25;;;1.70;;
29218;SDS011;16421;50.202;7.852;2024-02-26T12:27:10;2.10;;;1.40;;
29218;SDS011;16421;50.202;7.852;2024-02-26T12:32:14;2.40;;;1.83;;
29218;SDS011;16421;50.202;7.852;2024-02-26T12:37:19;2.10;;;1.73;;
29218;SDS011;16421;50.202;7.852;2024-02-26T12:42:22;2.80;;;1.73;;
29218;SDS011;16421;50.202;7.852;2024-02-26T12:47:26;1.92;;;1.50;;
29218;SDS011;16421;50.202;7.852;2024-02-26T12:52:31;1.27;;;1.17;;
29218;SDS011;16421;50.202;7.852;2024-02-26T12:57:35;3.20;;;1.10;;
29218;SDS011;16421;50.202;7.852;2024-02-26T13:02:39;1.33;;;1.10;;
29218;SDS011;16421;50.202;7.852;2024-02-26T13:07:47;1.35;;;0.90;;
29218;SDS011;16421;50.202;7.852;2024-02-26T13:12:51;2.20;;;1.60;;
29218;SDS011;16421;50.202;7.852;2024-02-26T13:17:54;1.40;;;1.30;;
29218;SDS011;16421;50.202;7.852;2024-02-26T13:23:02;2.63;;;1.60;;
29218;SDS011;16421;50.202;7.852;2024-02-26T13:28:07;2.28;;;1.65;;
29218;SDS011;16421;50.202;7.852;2024-02-26T13:33:12;2.88;;;1.77;;
29218;SDS011;16421;50.202;7.852;2024-02-26T13:38:17;3.25;;;2.13;;
29218;SDS011;16421;50.202;7.852;2024-02-26T13:43:23;4.88;;;3.08;;
29218;SDS011;16421;50.202;7.852;2024-02-26T13:48:27;2.58;;;2.10;;
29218;SDS011;16421;50.202;7.852;2024-02-26T13:53:32;2.13;;;1.88;;
29218;SDS011;16421;50.202;7.852;2024-02-26T13:58:36;2.42;;;1.83;;
29218;SDS011;16421;50.202;7.852;2024-02-26T14:03:39;2.75;;;1.83;;
29218;SDS011;16421;50.202;7.852;2024-02-26T14:08:44;3.17;;;2.30;;
29218;SDS011;16421;50.202;7.852;2024-02-26T14:13:47;2.72;;;1.90;;
29218;SDS011;16421;50.202;7.852;2024-02-26T14:18:51;2.63;;;1.75;;
29218;SDS011;16421;50.202;7.852;2024-02-26T14:23:55;2.00;;;1.80;;
29218;SDS011;16421;50.202;7.852;2024-02-26T14:28:59;2.63;;;2.00;;
29218;SDS011;16421;50.202;7.852;2024-02-26T14:34:02;2.10;;;1.90;;
29218;SDS011;16421;50.202;7.852;2024-02-26T14:39:07;2.80;;;2.10;;
29218;SDS011;16421;50.202;7.852;2024-02-26T14:44:12;2.47;;;1.77;;
29218;SDS011;16421;50.202;7.852;2024-02-26T14:49:15;3.10;;;2.20;;
29218;SDS011;16421;50.202;7.852;2024-02-26T14:54:20;4.55;;;2.80;;
29218;SDS011;16421;50.202;7.852;2024-02-26T14:59:24;2.72;;;1.90;;
29218;SDS011;16421;50.202;7.852;2024-02-26T15:04:27;2.83;;;1.90;;
29218;SDS011;16421;50.202;7.852;2024-02-26T15:09:32;2.50;;;1.65;;
29218;SDS011;16421;50.202;7.852;2024-02-26T15:14:35;2.20;;;1.52;;
29218;SDS011;16421;50.202;7.852;2024-02-26T15:19:39;3.22;;;1.60;;
29218;SDS011;16421;50.202;7.852;2024-02-26T15:24:44;2.53;;;1.80;;
29218;SDS011;16421;50.202;7.852;2024-02-26T15:29:48;2.13;;;1.33;;
29218;SDS011;16421;50.202;7.852;2024-02-26T15:34:57;1.98;;;1.52;;
29218;SDS011;16421;50.202;7.852;2024-02-26T15:40:04;2.47;;;1.80;;
29218;SDS011;16421;50.202;7.852;2024-02-26T15:45:09;2.20;;;1.73;;
29218;SDS011;16421;50.202;7.852;2024-02-26T15:50:12;2.42;;;1.70;;
29218;SDS011;16421;50.202;7.852;2024-02-26T15:55:17;2.70;;;1.80;;
29218;SDS011;16421;50.202;7.852;2024-02-26T16:00:21;2.15;;;1.80;;
29218;SDS011;16421;50.202;7.852;2024-02-26T16:05:25;1.92;;;1.45;;
29218;SDS011;16421;50.202;7.852;2024-02-26T16:10:30;1.98;;;1.45;;
29218;SDS011;16421;50.202;7.852;2024-02-26T16:15:34;1.60;;;1.35;;
29218;SDS011;16421;50.202;7.852;2024-02-26T16:20:38;2.58;;;1.67;;
29218;SDS011;16421;50.202;7.852;2024-02-26T16:25:42;2.90;;;1.65;;
29218;SDS011;16421;50.202;7.852;2024-02-26T16:30:47;2.70;;;1.53;;
29218;SDS011;16421;50.202;7.852;2024-02-26T16:35:50;3.65;;;1.83;;
29218;SDS011;16421;50.202;7.852;2024-02-26T16:40:55;1.83;;;1.40;;
29218;SDS011;16421;50.202;7.852;2024-02-26T16:45:59;2.10;;;1.50;;
29218;SDS011;16421;50.202;7.852;2024-02-26T16:51:02;2.03;;;1.83;;
29218;SDS011;16421;50.202;7.852;2024-02-26T16:56:09;1.98;;;1.50;;
29218;SDS011;16421;50.202;7.852;2024-02-26T17:01:13;2.35;;;1.92;;
29218;SDS011;16421;50.202;7.852;2024-02-26T17:06:16;5.03;;;1.90;;
29218;SDS011;16421;50.202;7.852;2024-02-26T17:11:25;2.05;;;1.40;;
29218;SDS011;16421;50.202;7.852;2024-02-26T17:16:31;4.07;;;1.80;;
29218;SDS011;16421;50.202;7.852;2024-02-26T17:21:37;2.03;;;1.40;;
29218;SDS011;16421;50.202;7.852;2024-02-26T17:26:42;2.08;;;1.60;;
29218;SDS011;16421;50.202;7.852;2024-02-26T17:31:46;3.15;;;1.85;;
29218;SDS011;16421;50.202;7.852;2024-02-26T17:36:49;4.55;;;2.75;;
29218;SDS011;16421;50.202;7.852;2024-02-26T17:41:56;5.10;;;3.15;;
29218;SDS011;16421;50.202;7.852;2024-02-26T17:46:59;3.25;;;2.15;;
29218;SDS011;16421;50.202;7.852;2024-02-26T17:52:03;2.42;;;2.00;;
29218;SDS011;16421;50.202;7.852;2024-02-26T17:57:08;2.33;;;1.58;;
29218;SDS011;16421;50.202;7.852;2024-02-26T18:02:12;1.97;;;1.30;;
29218;SDS011;16421;50.202;7.852;2024-02-26T18:07:16;1.83;;;1.60;;
29218;SDS011;16421;50.202;7.852;2024-02-26T18:12:21;2.22;;;1.90;;
29218;SDS011;16421;50.202;7.852;2024-02-26T18:17:25;3.38;;;2.53;;
29218;SDS011;16421;50.202;7.852;2024-02-26T18:22:29;5.50;;;4.20;;
29218;SDS011;16421;50.202;7.852;2024-02-26T18:27:34;4.13;;;3.50;;
29218;SDS011;16421;50.202;7.852;2024-02-26T18:32:39;4.18;;;2.45;;
29218;SDS011;16421;50.202;7.852;2024-02-26T18:37:42;3.00;;;2.25;;
29218;SDS011;16421;50.202;7.852;2024-02-26T18:42:47;2.00;;;1.70;;
29218;SDS011;16421;50.202;7.852;2024-02-26T18:47:50;1.90;;;1.70;;
29218;SDS011;16421;50.202;7.852;2024-02-26T18:52:53;2.92;;;2.00;;
29218;SDS011;16421;50.202;7.852;2024-02-26T18:58:27;2.85;;;1.92;;
29218;SDS011;16421;50.202;7.852;2024-02-26T19:04:10;2.08;;;1.77;;
29218;SDS011;16421;50.202;7.852;2024-02-26T19:09:14;2.97;;;2.30;;
29218;SDS011;16421;50.202;7.852;2024-02-26T19:14:19;3.40;;;2.17;;
29218;SDS011;16421;50.202;7.852;2024-02-26T19:19:23;4.28;;;2.50;;
29218;SDS011;16421;50.202;7.852;2024-02-26T19:24:26;4.28;;;2.67;;
29218;SDS011;16421;50.202;7.852;2024-02-26T19:29:31;3.15;;;2.33;;
29218;SDS011;16421;50.202;7.852;2024-02-26T19:34:34;4.45;;;2.95;;
29218;SDS011;16421;50.202;7.852;2024-02-26T19:39:39;8.15;;;4.25;;
29218;SDS011;16421;50.202;7.852;2024-02-26T19:44:44;8.07;;;5.20;;
29218;SDS011;16421;50.202;7.852;2024-02-26T19:49:48;6.15;;;4.10;;
29218;SDS011;16421;50.202;7.852;2024-02-26T19:54:51;5.43;;;3.50;;
29218;SDS011;16421;50.202;7.852;2024-02-26T19:59:56;5.20;;;3.25;;
29218;SDS011;16421;50.202;7.852;2024-02-26T20:04:59;3.53;;;2.42;;
29218;SDS011;16421;50.202;7.852;2024-02-26T20:10:03;4.40;;;2.80;;
29218;SDS011;16421;50.202;7.852;2024-02-26T20:15:08;4.95;;;3.28;;
29218;SDS011;16421;50.202;7.852;2024-02-26T20:20:12;4.00;;;2.78;;
29218;SDS011;16421;50.202;7.852;2024-02-26T20:25:17;3.75;;;2.80;;
29218;SDS011;16421;50.202;7.852;2024-02-26T20:30:26;3.17;;;2.47;;
29218;SDS011;16421;50.202;7.852;2024-02-26T20:35:31;4.13;;;3.00;;
29218;SDS011;16421;50.202;7.852;2024-02-26T20:40:35;4.20;;;2.72;;
29218;SDS011;16421;50.202;7.852;2024-02-26T20:45:42;4.10;;;3.10;;
29218;SDS011;16421;50.202;7.852;2024-02-26T20:50:52;4.00;;;2.85;;
29218;SDS011;16421;50.202;7.852;2024-02-26T20:55:55;4.50;;;2.65;;
29218;SDS011;16421;50.202;7.852;2024-02-26T21:01:02;3.47;;;2.85;;
29218;SDS011;16421;50.202;7.852;2024-02-26T21:06:08;3.58;;;2.63;;
29218;SDS011;16421;50.202;7.852;2024-02-26T21:11:14;3.47;;;2.78;;
29218;SDS011;16421;50.202;7.852;2024-02-26T21:16:20;4.55;;;3.25;;
29218;SDS011;16421;50.202;7.852;2024-02-26T21:21:23;3.60;;;3.00;;
29218;SDS011;16421;50.202;7.852;2024-02-26T21:26:32;4.40;;;3.13;;
29218;SDS011;16421;50.202;7.852;2024-02-26T21:31:37;5.43;;;3.40;;
29218;SDS011;16421;50.202;7.852;2024-02-26T21:36:43;4.80;;;3.40;;
29218;SDS011;16421;50.202;7.852;2024-02-26T21:41:47;5.00;;;3.55;;
29218;SDS011;16421;50.202;7.852;2024-02-26T21:47:00;5.15;;;3.60;;
29218;SDS011;16421;50.202;7.852;2024-02-26T21:52:04;6.38;;;4.22;;
29218;SDS011;16421;50.202;7.852;2024-02-26T21:57:08;6.38;;;4.40;;
29218;SDS011;16421;50.202;7.852;2024-02-26T22:02:13;7.72;;;4.43;;
29218;SDS011;16421;50.202;7.852;2024-02-26T22:07:16;8.52;;;6.45;;
29218;SDS011;16421;50.202;7.852;2024-02-26T22:12:20;10.57;;;8.18;;
29218;SDS011;16421;50.202;7.852;2024-02-26T22:17:25;7.80;;;5.80;;
29218;SDS011;16421;50.202;7.852;2024-02-26T22:22:29;9.05;;;6.05;;
29218;SDS011;16421;50.202;7.852;2024-02-26T22:27:32;8.57;;;6.30;;
29218;SDS011;16421;50.202;7.852;2024-02-26T22:32:37;6.93;;;5.20;;
29218;SDS011;16421;50.202;7.852;2024-02-26T22:37:41;7.30;;;5.20;;
29218;SDS011;16421;50.202;7.852;2024-02-26T22:42:45;11.07;;;8.13;;
29218;SDS011;16421;50.202;7.852;2024-02-26T22:47:49;8.20;;;6.07;;
29218;SDS011;16421;50.202;7.852;2024-02-26T22:52:53;7.15;;;5.47;;
29218;SDS011;16421;50.202;7.852;2024-02-26T22:57:56;9.25;;;6.53;;
29218;SDS011;16421;50.202;7.852;2024-02-26T23:03:01;11.32;;;7.07;;
29218;SDS011;16421;50.202;7.852;2024-02-26T23:08:05;13.95;;;9.80;;
29218;SDS011;16421;50.202;7.852;2024-02-26T23:13:09;11.15;;;8.23;;
29218;SDS011;16421;50.202;7.852;2024-02-26T23:18:14;12.80;;;8.85;;
29218;SDS011;16421;50.202;7.852;2024-02-26T23:23:17;11.27;;;8.52;;
29218;SDS011;16421;50.202;7.852;2024-02-26T23:28:21;12.27;;;9.57;;
29218;SDS011;16421;50.202;7.852;2024-02-26T23:33:25;12.80;;;9.35;;
29218;SDS011;16421;50.202;7.852;2024-02-26T23:38:29;11.15;;;7.25;;
29218;SDS011;16421;50.202;7.852;2024-02-26T23:43:32;11.23;;;7.88;;
29218;SDS011;16421;50.202;7.852;2024-02-26T23:48:37;16.88;;;11.38;;
29218;SDS011;16421;50.202;7.852;2024-02-26T23:53:40;12.52;;;8.70;;
29218;SDS011;16421;50.202;7.852;2024-02-26T23:58:44;11.50;;;7.95;;
